createdAt,value
2018-08-03T00:01:44.947Z,14.40
2018-08-03T00:03:48.524Z,13.57
2018-08-03T00:05:52.364Z,13.93
2018-08-03T00:07:55.921Z,14.83
2018-08-03T00:09:59.465Z,13.67
2018-08-03T00:12:03.014Z,13.70
2018-08-03T00:14:06.981Z,14.07
2018-08-03T00:16:10.565Z,13.67
2018-08-03T00:18:14.627Z,14.00
2018-08-03T00:20:18.310Z,13.67
2018-08-03T00:22:21.937Z,14.83
2018-08-03T00:24:25.480Z,14.77
2018-08-03T00:26:29.279Z,16.10
2018-08-03T00:28:32.915Z,16.00
2018-08-03T00:30:36.831Z,14.17
2018-08-03T00:32:40.728Z,14.70
2018-08-03T00:34:44.336Z,14.63
2018-08-03T00:36:47.921Z,14.33
2018-08-03T00:38:51.723Z,15.53
2018-08-03T00:40:55.250Z,14.63
2018-08-03T00:42:58.798Z,14.77
2018-08-03T00:45:02.311Z,14.80
2018-08-03T00:47:05.865Z,14.97
2018-08-03T00:49:09.424Z,14.80
2018-08-03T00:51:13.972Z,15.23
2018-08-03T00:53:17.459Z,15.10
2018-08-03T00:55:20.994Z,13.77
2018-08-03T00:57:24.520Z,13.00
2018-08-03T00:59:28.044Z,13.30
2018-08-03T01:01:31.666Z,13.53
2018-08-03T01:03:35.566Z,13.57
2018-08-03T01:05:39.027Z,14.67
2018-08-03T01:07:42.616Z,12.90
2018-08-03T01:09:46.103Z,14.13
2018-08-03T01:11:49.669Z,14.20
2018-08-03T01:13:53.477Z,13.87
2018-08-03T01:15:57.052Z,14.40
2018-08-03T01:18:00.624Z,13.80
2018-08-03T01:20:05.220Z,13.53
2018-08-03T01:22:08.781Z,12.77
2018-08-03T01:24:13.081Z,15.40
2018-08-03T01:26:16.663Z,14.60
2018-08-03T01:28:20.216Z,14.10
2018-08-03T01:30:23.685Z,14.23
2018-08-03T01:32:27.245Z,14.57
2018-08-03T01:34:30.735Z,13.83
2018-08-03T01:36:34.268Z,13.87
2018-08-03T01:38:37.844Z,14.17
2018-08-03T01:40:41.359Z,14.07
2018-08-03T01:42:44.979Z,13.73
2018-08-03T01:44:48.904Z,14.93
2018-08-03T01:46:52.386Z,12.97
2018-08-03T01:48:55.971Z,14.07
2018-08-03T01:50:59.881Z,14.80
2018-08-03T01:53:03.820Z,14.53
2018-08-03T01:55:07.379Z,15.10
2018-08-03T01:57:10.936Z,14.37
2018-08-03T01:59:14.833Z,13.90
2018-08-03T02:01:18.318Z,13.57
2018-08-03T02:03:22.177Z,14.27
2018-08-03T02:05:25.899Z,13.50
2018-08-03T02:07:29.424Z,14.23
2018-08-03T02:09:32.958Z,14.97
2018-08-03T02:11:36.809Z,14.17
2018-08-03T02:13:40.322Z,14.27
2018-08-03T02:15:43.947Z,13.37
2018-08-03T02:17:47.469Z,13.10
2018-08-03T02:19:50.959Z,15.13
2018-08-03T02:21:54.871Z,13.97
2018-08-03T02:23:58.838Z,14.33
2018-08-03T02:26:03.022Z,13.90
2018-08-03T02:28:07.275Z,14.10
2018-08-03T02:30:10.832Z,14.07
2018-08-03T02:32:14.721Z,13.50
2018-08-03T02:34:18.302Z,14.40
2018-08-03T02:36:21.786Z,13.47
2018-08-03T02:38:25.409Z,14.37
2018-08-03T02:40:28.990Z,14.20
2018-08-03T02:42:32.560Z,15.20
2018-08-03T02:44:36.066Z,14.40
2018-08-03T02:46:39.574Z,15.23
2018-08-03T02:48:43.160Z,13.13
2018-08-03T02:50:47.114Z,13.87
2018-08-03T02:52:51.081Z,15.10
2018-08-03T02:54:54.940Z,14.17
2018-08-03T02:56:58.434Z,14.67
2018-08-03T02:59:02.017Z,14.93
2018-08-03T03:01:05.584Z,13.27
2018-08-03T03:03:09.143Z,14.00
2018-08-03T03:05:12.680Z,14.57
2018-08-03T03:07:16.209Z,14.80
2018-08-03T03:09:19.850Z,14.47
2018-08-03T03:11:23.392Z,14.00
2018-08-03T03:13:26.957Z,14.67
2018-08-03T03:15:30.863Z,13.83
2018-08-03T03:17:37.519Z,14.10
2018-08-03T03:19:41.130Z,13.80
2018-08-03T03:21:44.828Z,13.43
2018-08-03T03:23:48.393Z,13.67
2018-08-03T03:25:52.376Z,14.73
2018-08-03T03:27:55.960Z,14.00
2018-08-03T03:29:59.492Z,14.60
2018-08-03T03:32:03.016Z,14.90
2018-08-03T03:34:06.708Z,14.50
2018-08-03T03:36:10.252Z,14.60
2018-08-03T03:38:14.204Z,14.23
2018-08-03T03:40:17.770Z,14.73
2018-08-03T03:42:21.355Z,15.03
2018-08-03T03:44:24.904Z,15.77
2018-08-03T03:46:28.437Z,14.47
2018-08-03T03:48:32.091Z,14.33
2018-08-03T03:50:36.048Z,14.37
2018-08-03T03:52:39.608Z,14.47
2018-08-03T03:54:43.141Z,14.67
2018-08-03T03:56:46.699Z,14.33
2018-08-03T03:58:50.309Z,14.20
2018-08-03T04:00:53.839Z,14.93
2018-08-03T04:02:57.461Z,14.83
2018-08-03T04:05:01.025Z,13.83
2018-08-03T04:07:04.692Z,14.73
2018-08-03T04:09:10.612Z,16.37
2018-08-03T04:11:20.843Z,14.33
2018-08-03T04:13:24.387Z,13.53
2018-08-03T04:15:27.983Z,14.13
2018-08-03T04:17:31.504Z,13.07
2018-08-03T04:19:35.028Z,14.17
2018-08-03T04:21:38.640Z,15.57
2018-08-03T04:23:42.219Z,13.67
2018-08-03T04:25:45.781Z,14.40
2018-08-03T04:27:49.400Z,13.43
2018-08-03T04:29:53.049Z,14.93
2018-08-03T04:31:56.889Z,15.63
2018-08-03T04:34:00.548Z,15.10
2018-08-03T04:36:04.139Z,15.20
2018-08-03T04:38:07.729Z,14.00
2018-08-03T04:40:12.185Z,12.73
2018-08-03T04:42:15.961Z,13.23
2018-08-03T04:44:19.878Z,12.57
2018-08-03T04:46:23.539Z,13.63
2018-08-03T04:48:27.060Z,12.93
2018-08-03T04:50:30.656Z,14.43
2018-08-03T04:52:34.347Z,12.23
2018-08-03T04:54:37.922Z,13.00
2018-08-03T04:56:41.666Z,12.63
2018-08-03T04:58:45.196Z,12.83
2018-08-03T05:00:48.756Z,13.00
2018-08-03T05:02:52.399Z,12.40
2018-08-03T05:04:56.264Z,12.30
2018-08-03T05:06:59.853Z,12.73
2018-08-03T05:09:03.788Z,13.70
2018-08-03T05:11:07.315Z,13.33
2018-08-03T05:13:10.885Z,11.73
2018-08-03T05:15:14.472Z,11.90
2018-08-03T05:17:18.059Z,13.13
2018-08-03T05:19:21.740Z,12.53
2018-08-03T05:21:25.331Z,13.03
2018-08-03T05:23:28.941Z,13.23
2018-08-03T05:25:32.540Z,13.67
2018-08-03T05:27:36.199Z,13.90
2018-08-03T05:29:39.837Z,12.40
2018-08-03T05:31:43.361Z,12.47
2018-08-03T05:33:46.989Z,12.23
2018-08-03T05:35:50.613Z,12.13
2018-08-03T05:37:54.435Z,12.90
2018-08-03T05:39:58.008Z,12.53
2018-08-03T05:42:02.001Z,12.37
2018-08-03T05:44:06.393Z,12.40
2018-08-03T05:46:10.156Z,12.53
2018-08-03T05:48:14.060Z,10.87
2018-08-03T05:50:17.854Z,10.87
2018-08-03T05:52:21.702Z,11.50
2018-08-03T05:54:25.686Z,11.27
2018-08-03T05:56:29.628Z,12.10
2018-08-03T05:58:33.243Z,11.20
2018-08-03T06:00:36.921Z,10.87
2018-08-03T06:02:40.783Z,11.80
2018-08-03T06:04:44.355Z,11.53
2018-08-03T06:06:47.942Z,11.17
2018-08-03T06:08:51.516Z,10.93
2018-08-03T06:10:55.500Z,9.77
2018-08-03T06:13:00.491Z,9.27
2018-08-03T06:15:05.805Z,8.53
2018-08-03T06:17:09.445Z,8.30
2018-08-03T06:19:13.172Z,9.10
2018-08-03T06:21:17.126Z,8.23
2018-08-03T06:23:20.730Z,8.47
2018-08-03T06:25:24.401Z,8.80
2018-08-03T06:27:27.995Z,7.63
2018-08-03T06:29:32.067Z,8.20
2018-08-03T06:31:35.597Z,7.17
2018-08-03T06:33:39.865Z,8.23
2018-08-03T06:35:43.577Z,7.10
2018-08-03T06:37:47.163Z,7.13
2018-08-03T06:39:50.772Z,6.97
2018-08-03T06:41:54.468Z,7.50
2018-08-03T06:43:58.372Z,11.73
2018-08-03T06:46:02.449Z,8.17
2018-08-03T06:48:05.982Z,7.37
2018-08-03T06:50:11.422Z,8.97
2018-08-03T06:52:14.987Z,7.60
2018-08-03T06:54:18.595Z,7.93
2018-08-03T06:56:22.163Z,8.00
2018-08-03T06:58:25.679Z,7.93
2018-08-03T07:00:29.943Z,7.83
2018-08-03T07:02:33.710Z,7.27
2018-08-03T07:04:40.280Z,6.47
2018-08-03T07:06:43.909Z,7.67
2018-08-03T07:08:47.487Z,8.97
2018-08-03T07:10:51.080Z,7.80
2018-08-03T07:12:54.589Z,8.37
2018-08-03T07:14:58.256Z,8.60
2018-08-03T07:17:02.017Z,8.93
2018-08-03T07:19:06.003Z,8.70
2018-08-03T07:21:10.184Z,9.00
2018-08-03T07:23:13.755Z,10.13
2018-08-03T07:25:17.379Z,9.90
2018-08-03T07:27:20.988Z,8.93
2018-08-03T07:29:24.480Z,11.27
2018-08-03T07:31:28.071Z,9.87
2018-08-03T07:33:31.676Z,9.53
2018-08-03T07:35:35.321Z,8.20
2018-08-03T07:37:38.884Z,8.57
2018-08-03T07:39:55.890Z,8.03
2018-08-03T07:42:13.327Z,8.17
2018-08-03T07:44:18.546Z,8.28
2018-08-03T07:46:22.680Z,11.30
2018-08-03T07:48:26.312Z,12.53
2018-08-03T07:50:29.971Z,8.70
2018-08-03T07:52:33.579Z,8.75
2018-08-03T07:54:38.030Z,7.93
2018-08-03T07:56:42.872Z,8.83
2018-08-03T07:58:47.112Z,14.38
2018-08-03T08:00:50.847Z,8.60
2018-08-03T08:02:55.395Z,8.83
2018-08-03T08:05:04.747Z,8.33
2018-08-03T08:07:08.813Z,8.17
2018-08-03T08:09:13.091Z,7.70
2018-08-03T08:11:17.269Z,8.53
2018-08-03T08:13:21.492Z,7.85
2018-08-03T08:15:25.618Z,7.87
2018-08-03T08:17:29.830Z,7.85
2018-08-03T08:19:33.993Z,8.40
2018-08-03T08:21:38.577Z,6.80
2018-08-03T08:23:43.254Z,10.03
2018-08-03T08:25:48.163Z,8.10
2018-08-03T08:27:52.898Z,8.58
2018-08-03T08:29:58.096Z,8.15
2018-08-03T08:32:02.369Z,7.58
2018-08-03T08:34:08.271Z,10.45
2018-08-03T08:36:13.438Z,8.98
2018-08-03T08:38:19.069Z,7.40
2018-08-03T08:40:23.390Z,8.58
2018-08-03T08:42:29.204Z,8.10
2018-08-03T08:44:33.400Z,8.20
2018-08-03T08:46:37.790Z,7.85
2018-08-03T08:48:42.025Z,8.68
2018-08-03T08:50:47.411Z,9.20
2018-08-03T08:52:51.544Z,8.45
2018-08-03T08:54:56.446Z,8.28
2018-08-03T08:57:00.629Z,8.05
2018-08-03T08:59:05.209Z,8.48
2018-08-03T09:01:09.797Z,8.43
2018-08-03T09:03:14.504Z,9.20
2018-08-03T09:05:20.950Z,8.20
2018-08-03T09:07:25.163Z,7.33
2018-08-03T09:09:29.684Z,8.85
2018-08-03T09:11:33.922Z,7.90
2018-08-03T09:13:38.073Z,7.25
2018-08-03T09:15:42.209Z,7.87
2018-08-03T09:17:46.359Z,7.92
2018-08-03T09:19:50.706Z,7.87
2018-08-03T09:21:54.808Z,7.78
2018-08-03T09:23:58.991Z,7.47
2018-08-03T09:26:03.150Z,8.13
2018-08-03T09:28:07.940Z,7.78
2018-08-03T09:30:12.175Z,8.93
2018-08-03T09:32:16.778Z,8.53
2018-08-03T09:34:20.936Z,7.80
2018-08-03T09:36:25.148Z,8.05
2018-08-03T09:38:29.457Z,7.20
2018-08-03T09:40:33.698Z,7.75
2018-08-03T09:42:37.962Z,7.25
2018-08-03T09:44:42.168Z,8.00
2018-08-03T09:46:48.735Z,8.10
2018-08-03T09:48:53.698Z,7.60
2018-08-03T09:50:57.982Z,7.37
2018-08-03T09:53:02.200Z,7.30
2018-08-03T09:55:06.490Z,8.08
2018-08-03T09:57:10.873Z,7.60
2018-08-03T09:59:15.023Z,8.10
2018-08-03T10:01:19.246Z,8.10
2018-08-03T10:03:23.700Z,8.15
2018-08-03T10:05:27.984Z,6.90
2018-08-03T10:07:32.210Z,8.03
2018-08-03T10:09:36.407Z,6.47
2018-08-03T10:11:40.931Z,6.42
2018-08-03T10:13:45.054Z,6.17
2018-08-03T10:15:49.164Z,6.10
2018-08-03T10:17:53.416Z,6.03
2018-08-03T10:19:57.828Z,5.95
2018-08-03T10:22:02.041Z,5.60
2018-08-03T10:24:06.218Z,7.17
2018-08-03T10:26:10.388Z,6.25
2018-08-03T10:28:27.161Z,5.80
2018-08-03T10:30:31.492Z,6.40
2018-08-03T10:32:36.485Z,6.08
2018-08-03T10:34:40.929Z,5.17
2018-08-03T10:36:45.654Z,5.33
2018-08-03T10:38:50.074Z,5.72
2018-08-03T10:40:54.542Z,5.65
2018-08-03T10:42:58.968Z,5.53
2018-08-03T10:45:04.091Z,5.75
2018-08-03T10:47:08.421Z,6.03
2018-08-03T10:49:15.702Z,5.97
2018-08-03T10:51:20.458Z,5.50
2018-08-03T10:53:24.909Z,9.08
2018-08-03T10:55:29.471Z,5.33
2018-08-03T10:57:33.712Z,5.67
2018-08-03T10:59:50.277Z,5.80
2018-08-03T11:01:54.849Z,4.97
2018-08-03T11:03:59.247Z,5.87
2018-08-03T11:06:13.421Z,6.70
2018-08-03T11:08:24.677Z,5.78
2018-08-03T11:10:29.264Z,6.58
2018-08-03T11:15:17.639Z,9.18
2018-08-03T11:17:27.431Z,6.00
2018-08-03T11:19:32.423Z,7.22
2018-08-03T11:21:50.388Z,5.72
2018-08-03T11:23:59.217Z,5.50
2018-08-03T11:26:04.084Z,5.20
2018-08-03T11:28:08.797Z,5.20
2018-08-03T11:30:13.367Z,5.42
2018-08-03T11:32:17.918Z,5.40
2018-08-03T11:34:35.892Z,6.00
2018-08-03T11:36:53.899Z,4.85
2018-08-03T11:39:11.899Z,5.97
2018-08-03T11:41:38.399Z,5.10
2018-08-03T11:49:15.892Z,5.95
2018-08-03T11:51:20.044Z,5.28
2018-08-03T11:53:24.388Z,5.60
2018-08-03T11:55:29.501Z,5.75
2018-08-03T11:57:33.882Z,6.83
2018-08-03T11:59:38.033Z,5.62
2018-08-03T12:01:42.391Z,11.70
2018-08-03T12:03:47.671Z,4.83
2018-08-03T12:05:53.451Z,6.75
2018-08-03T12:07:58.045Z,5.75
2018-08-03T12:10:03.084Z,5.15
2018-08-03T12:12:08.070Z,5.40
2018-08-03T12:14:12.394Z,5.22
2018-08-03T12:16:16.539Z,4.85
2018-08-03T12:18:21.585Z,5.25
2018-08-03T12:20:26.072Z,6.30
2018-08-03T12:22:30.357Z,5.53
2018-08-03T12:24:35.423Z,5.22
2018-08-03T12:26:40.345Z,5.15
2018-08-03T12:28:44.757Z,5.72
2018-08-03T12:30:49.011Z,4.72
2018-08-03T12:32:53.119Z,7.40
2018-08-03T12:34:58.069Z,5.20
2018-08-03T12:37:02.660Z,4.40
2018-08-03T12:39:09.565Z,5.10
2018-08-03T12:41:13.625Z,4.92
2018-08-03T12:43:17.677Z,6.72
2018-08-03T12:45:21.166Z,5.80
2018-08-03T12:47:24.648Z,4.85
2018-08-03T12:49:28.539Z,5.50
2018-08-03T12:51:32.083Z,4.90
2018-08-03T12:53:48.709Z,5.80
2018-08-03T12:55:52.203Z,6.00
2018-08-03T12:58:09.835Z,4.75
2018-08-03T13:00:28.061Z,5.67
2018-08-03T13:02:44.026Z,6.40
2018-08-03T13:04:47.591Z,6.12
2018-08-03T13:06:51.738Z,5.93
2018-08-03T13:08:55.332Z,5.08
2018-08-03T13:10:58.851Z,5.17
2018-08-03T13:13:02.387Z,4.80
2018-08-03T13:15:16.089Z,5.07
2018-08-03T13:17:22.195Z,5.13
2018-08-03T13:19:25.805Z,5.10
2018-08-03T13:21:40.231Z,5.57
2018-08-03T13:24:06.077Z,6.17
2018-08-03T13:26:23.602Z,5.63
2018-08-03T13:28:38.721Z,5.60
2018-08-03T13:30:43.146Z,4.77
2018-08-03T13:32:47.792Z,4.63
2018-08-03T13:34:55.175Z,5.43
2018-08-03T13:37:00.556Z,6.77
2018-08-03T13:39:06.409Z,4.97
2018-08-03T13:41:10.231Z,4.83
2018-08-03T13:43:13.853Z,5.00
2018-08-03T13:45:17.337Z,9.80
2018-08-03T13:47:20.831Z,7.33
2018-08-03T13:49:24.331Z,5.10
2018-08-03T13:51:28.168Z,5.10
2018-08-03T13:53:43.171Z,5.43
2018-08-03T13:55:46.713Z,5.67
2018-08-03T13:57:50.771Z,5.03
2018-08-03T13:59:57.001Z,5.87
2018-08-03T14:02:11.864Z,5.13
2018-08-03T14:04:15.495Z,5.77
2018-08-03T14:06:19.679Z,5.33
2018-08-03T14:08:23.241Z,5.97
2018-08-03T14:10:26.962Z,5.00
2018-08-03T14:12:30.582Z,6.50
2018-08-03T14:14:34.183Z,5.07
2018-08-03T14:16:37.774Z,5.07
2018-08-03T14:18:41.602Z,4.87
2018-08-03T14:20:45.260Z,5.33
2018-08-03T14:23:01.912Z,5.50
2018-08-03T14:25:18.276Z,6.10
2018-08-03T14:27:22.252Z,5.30
2018-08-03T14:29:26.300Z,5.77
2018-08-03T14:31:36.038Z,6.57
2018-08-03T14:33:40.805Z,6.07
2018-08-03T14:35:44.601Z,5.47
2018-08-03T14:37:48.521Z,6.27
2018-08-03T14:39:52.350Z,7.17
2018-08-03T14:41:56.913Z,5.77
2018-08-03T14:44:00.749Z,5.73
2018-08-03T14:46:04.854Z,8.43
2018-08-03T14:48:08.960Z,5.97
2018-08-03T14:50:13.149Z,7.20
2018-08-03T14:52:17.610Z,5.97
2018-08-03T14:54:21.590Z,5.67
2018-08-03T14:56:27.441Z,5.57
2018-08-03T14:58:31.527Z,6.03
2018-08-03T15:00:35.559Z,6.87
2018-08-03T15:02:39.275Z,7.90
2018-08-03T15:04:45.383Z,5.80
2018-08-03T15:06:51.527Z,7.40
2018-08-03T15:08:55.444Z,5.93
2018-08-03T15:11:04.419Z,5.70
2018-08-03T15:13:09.183Z,4.93
2018-08-03T15:15:13.281Z,8.80
2018-08-03T15:17:17.155Z,5.60
2018-08-03T15:19:21.824Z,5.73
2018-08-03T15:21:25.374Z,5.60
2018-08-03T15:23:29.363Z,5.50
2018-08-03T15:25:33.641Z,5.40
2018-08-03T15:27:37.207Z,5.50
2018-08-03T15:29:40.772Z,6.03
2018-08-03T15:31:44.330Z,6.20
2018-08-03T15:33:47.910Z,5.43
2018-08-03T15:35:51.460Z,5.83
2018-08-03T15:37:54.973Z,5.90
2018-08-03T15:39:58.555Z,5.13
2018-08-03T15:42:02.189Z,5.70
2018-08-03T15:44:05.860Z,5.37
2018-08-03T15:46:09.479Z,6.60
2018-08-03T15:48:13.017Z,4.83
2018-08-03T15:50:16.612Z,7.10
2018-08-03T15:52:20.227Z,5.90
2018-08-03T15:54:23.804Z,5.43
2018-08-03T15:56:27.404Z,5.30
2018-08-03T15:58:30.940Z,7.47
2018-08-03T16:00:35.219Z,6.37
2018-08-03T16:02:38.734Z,4.80
2018-08-03T16:04:42.270Z,5.67
2018-08-03T16:06:45.913Z,5.60
2018-08-03T16:08:49.917Z,6.63
2018-08-03T16:10:53.459Z,6.53
2018-08-03T16:12:56.939Z,4.93
2018-08-03T16:15:00.672Z,4.67
2018-08-03T16:17:04.641Z,7.33
2018-08-03T16:19:08.162Z,6.30
2018-08-03T16:21:11.708Z,8.10
2018-08-03T16:23:15.262Z,5.03
2018-08-03T16:25:18.848Z,5.40
2018-08-03T16:27:22.423Z,6.67
2018-08-03T16:29:26.001Z,6.23
2018-08-03T16:31:29.636Z,6.03
2018-08-03T16:33:33.192Z,5.50
2018-08-03T16:35:36.821Z,5.87
2018-08-03T16:37:40.382Z,5.57
2018-08-03T16:39:43.989Z,5.70
2018-08-03T16:41:47.912Z,5.70
2018-08-03T16:43:51.446Z,5.40
2018-08-03T16:45:55.017Z,7.87
2018-08-03T16:47:58.588Z,5.43
2018-08-03T16:50:02.195Z,6.27
2018-08-03T16:52:05.872Z,5.30
2018-08-03T16:54:09.408Z,5.60
2018-08-03T16:56:13.741Z,4.60
2018-08-03T16:58:17.316Z,11.53
2018-08-03T17:00:20.985Z,5.60
2018-08-03T17:02:24.520Z,6.40
2018-08-03T17:04:28.102Z,4.77
2018-08-03T17:06:31.638Z,4.73
2018-08-03T17:08:35.170Z,5.80
2018-08-03T17:10:38.739Z,5.60
2018-08-03T17:12:42.332Z,5.97
2018-08-03T17:14:45.918Z,5.93
2018-08-03T17:16:49.512Z,6.30
2018-08-03T17:18:53.068Z,6.50
2018-08-03T17:20:56.654Z,10.13
2018-08-03T17:23:00.205Z,5.43
2018-08-03T17:25:03.888Z,8.03
2018-08-03T17:27:07.526Z,7.97
2018-08-03T17:29:11.149Z,6.10
2018-08-03T17:31:14.718Z,5.70
2018-08-03T17:33:18.296Z,6.20
2018-08-03T17:35:21.857Z,5.80
2018-08-03T17:37:25.429Z,5.43
2018-08-03T17:39:29.014Z,5.37
2018-08-03T17:41:32.709Z,6.47
2018-08-03T17:43:36.262Z,7.63
2018-08-03T17:45:39.895Z,5.83
2018-08-03T17:47:43.654Z,7.27
2018-08-03T17:49:47.220Z,5.60
2018-08-03T17:51:50.810Z,5.37
2018-08-03T17:53:54.340Z,6.83
2018-08-03T17:55:57.937Z,5.50
2018-08-03T17:58:01.652Z,5.87
2018-08-03T18:00:05.917Z,5.20
2018-08-03T18:02:09.484Z,5.30
2018-08-03T18:04:12.953Z,5.10
2018-08-03T18:06:16.530Z,5.53
2018-08-03T18:08:20.073Z,6.13
2018-08-03T18:10:23.674Z,5.00
2018-08-03T18:12:27.170Z,5.63
2018-08-03T18:14:30.763Z,5.80
2018-08-03T18:16:34.273Z,6.70
2018-08-03T18:18:37.857Z,7.03
2018-08-03T18:20:41.386Z,7.30
2018-08-03T18:22:45.288Z,6.90
2018-08-03T18:24:48.836Z,9.13
2018-08-03T18:26:52.775Z,10.63
2018-08-03T18:28:56.611Z,6.93
2018-08-03T18:31:00.276Z,6.93
2018-08-03T18:33:03.871Z,6.50
2018-08-03T18:35:07.748Z,6.40
2018-08-03T18:37:11.329Z,6.53
2018-08-03T18:39:14.912Z,5.70
2018-08-03T18:41:18.511Z,6.17
2018-08-03T18:43:22.477Z,9.17
2018-08-03T18:45:26.089Z,14.73
2018-08-03T18:47:29.646Z,13.97
2018-08-03T18:49:34.094Z,19.80
2018-08-03T18:51:37.623Z,12.17
2018-08-03T18:53:41.149Z,9.00
2018-08-03T18:55:44.750Z,9.33
2018-08-03T18:57:48.720Z,9.50
2018-08-03T18:59:52.671Z,7.87
2018-08-03T19:01:56.229Z,8.23
2018-08-03T19:04:00.164Z,7.93
2018-08-03T19:06:03.904Z,7.80
2018-08-03T19:08:07.483Z,8.50
2018-08-03T19:10:11.084Z,9.13
2018-08-03T19:12:14.929Z,7.30
2018-08-03T19:14:18.424Z,7.07
2018-08-03T19:16:28.509Z,8.00
2018-08-03T19:18:32.029Z,7.73
2018-08-03T19:20:35.576Z,11.43
2018-08-03T19:22:39.093Z,9.77
2018-08-03T19:24:42.724Z,8.00
2018-08-03T19:26:49.126Z,8.97
2018-08-03T19:28:52.641Z,7.70
2018-08-03T19:30:56.535Z,7.90
2018-08-03T19:33:00.065Z,7.43
2018-08-03T19:35:03.983Z,8.23
2018-08-03T19:37:07.619Z,9.13
2018-08-03T19:39:12.217Z,7.17
2018-08-03T19:41:15.880Z,9.43
2018-08-03T19:43:19.412Z,8.00
2018-08-03T19:45:22.935Z,10.87
2018-08-03T19:47:26.496Z,8.93
2018-08-03T19:49:30.006Z,8.10
2018-08-03T19:51:33.552Z,8.00
2018-08-03T19:53:37.299Z,9.67
2018-08-03T19:55:40.767Z,7.83
2018-08-03T19:57:44.300Z,8.00
2018-08-03T19:59:47.816Z,8.63
2018-08-03T20:01:51.416Z,7.97
2018-08-03T20:03:54.970Z,8.13
2018-08-03T20:05:58.556Z,8.23
2018-08-03T20:08:02.095Z,9.77
2018-08-03T20:10:06.397Z,11.60
2018-08-03T20:12:09.987Z,9.47
2018-08-03T20:14:13.585Z,10.90
2018-08-03T20:16:17.546Z,10.17
2018-08-03T20:18:21.121Z,8.40
2018-08-03T20:20:24.646Z,9.20
2018-08-03T20:22:28.438Z,8.77
2018-08-03T20:24:32.020Z,8.97
2018-08-03T20:38:56.582Z,9.43
2018-08-03T20:41:00.192Z,9.77
2018-08-03T20:43:03.789Z,13.03
2018-08-03T20:45:07.689Z,10.13
2018-08-03T20:47:11.657Z,10.60
2018-08-03T20:49:15.849Z,11.83
2018-08-03T20:51:19.797Z,9.70
2018-08-03T20:53:23.287Z,9.53
2018-08-03T20:55:26.795Z,9.67
2018-08-03T20:57:30.934Z,9.50
2018-08-03T20:59:34.568Z,9.10
2018-08-03T21:01:38.107Z,8.97
2018-08-03T21:03:41.708Z,9.03
2018-08-03T21:05:45.267Z,9.47
2018-08-03T21:07:48.842Z,9.37
2018-08-03T21:09:52.464Z,9.63
2018-08-03T21:11:56.073Z,9.57
2018-08-03T21:13:59.992Z,9.80
2018-08-03T21:16:03.519Z,9.53
2018-08-03T21:18:07.084Z,9.77
2018-08-03T21:20:10.756Z,10.10
2018-08-03T21:22:14.400Z,11.07
2018-08-03T21:24:18.048Z,12.77
2018-08-03T21:26:21.594Z,10.30
2018-08-03T21:28:25.169Z,11.10
2018-08-03T21:30:28.641Z,12.40
2018-08-03T21:32:32.178Z,12.17
2018-08-03T21:34:35.752Z,11.13
2018-08-03T21:36:39.323Z,11.40
2018-08-03T21:38:42.877Z,10.90
2018-08-03T21:40:46.415Z,11.00
2018-08-03T21:42:49.997Z,10.80
2018-08-03T21:44:53.583Z,10.63
2018-08-03T21:46:57.140Z,11.17
2018-08-03T21:49:00.676Z,9.93
2018-08-03T21:51:04.234Z,10.07
2018-08-03T21:53:07.768Z,9.47
2018-08-03T21:55:11.326Z,9.63
2018-08-03T21:57:14.898Z,10.13
2018-08-03T21:59:18.490Z,11.13
2018-08-03T22:01:22.551Z,10.47
2018-08-03T22:03:26.459Z,9.73
2018-08-03T22:05:30.008Z,9.87
2018-08-03T22:07:33.587Z,11.00
2018-08-03T22:09:37.144Z,10.60
2018-08-03T22:11:40.713Z,10.33
2018-08-03T22:13:44.269Z,10.90
2018-08-03T22:15:47.859Z,10.97
2018-08-03T22:17:51.428Z,10.93
2018-08-03T22:19:54.975Z,10.10
2018-08-03T22:21:58.528Z,10.03
2018-08-03T22:24:02.118Z,10.47
2018-08-03T22:26:05.665Z,9.93
2018-08-03T22:28:09.252Z,9.83
2018-08-03T22:30:13.024Z,10.27
2018-08-03T22:32:17.050Z,11.23
2018-08-03T22:34:20.724Z,9.90
2018-08-03T22:36:25.152Z,10.67
2018-08-03T22:38:28.731Z,11.17
2018-08-03T22:40:32.274Z,10.40
2018-08-03T22:42:35.806Z,10.97
2018-08-03T22:44:39.344Z,10.43
2018-08-03T22:46:42.935Z,10.50
2018-08-03T22:48:46.936Z,11.70
2018-08-03T22:50:50.888Z,10.97
2018-08-03T22:52:54.469Z,10.67
2018-08-03T22:54:57.997Z,11.30
2018-08-03T22:57:01.677Z,10.67
2018-08-03T22:59:05.275Z,11.77
2018-08-03T23:01:09.308Z,10.40
2018-08-03T23:03:12.989Z,11.20
2018-08-03T23:05:16.560Z,10.20
2018-08-03T23:07:20.098Z,10.33
2018-08-03T23:09:23.732Z,11.10
2018-08-03T23:11:27.328Z,11.27
2018-08-03T23:13:30.911Z,11.00
2018-08-03T23:15:34.552Z,11.53
2018-08-03T23:17:38.223Z,10.90
2018-08-03T23:19:41.747Z,10.63
2018-08-03T23:21:45.309Z,11.87
2018-08-03T23:23:48.890Z,12.10
2018-08-03T23:25:52.781Z,11.90
2018-08-03T23:27:56.355Z,12.30
2018-08-03T23:30:00.529Z,11.50
2018-08-03T23:32:04.577Z,11.93
2018-08-03T23:34:08.117Z,11.57
2018-08-03T23:36:11.708Z,11.00
2018-08-03T23:38:15.254Z,11.23
2018-08-03T23:40:19.153Z,12.47
2018-08-03T23:42:22.811Z,10.67
2018-08-03T23:44:26.357Z,11.77
2018-08-03T23:46:29.894Z,10.93
2018-08-03T23:48:33.391Z,11.87
2018-08-03T23:50:36.954Z,11.43
2018-08-03T23:52:40.502Z,12.83
2018-08-03T23:54:44.044Z,11.67
2018-08-03T23:56:47.613Z,11.37
2018-08-03T23:58:51.236Z,12.20
